arxmliv
arxmliv build tool
 
KWARC group
LaTeXML
About
   
 

Detailed info

Back to Homepage

List of missing_macros

No. Date Filename num_warningnum_errornum_xmargok_xmargnum_xmathok_xmathMissing macros
132001 2013-03-05 23:42:46 /0411/cond-mat.0411481 1630000[\psfrag].
132002 2013-03-05 23:42:40 /0411/cond-mat.0411419 2730000[\theappendix].
132003 2013-03-05 23:42:38 /0411/cond-mat.0411572 56830000[\toctitle, \institute, {subeqnarray}, Align, \titlerunning, \E, \authorrunning, \I]; 1 missing file[stamm.cls].
132004 2013-03-05 23:42:35 /0411/cond-mat.0411499 9130000[\IWCEaddressFirst, \setHeadings, \IWCEauthorsFirst, {IWCEabstract}, \preparetitle, {IWCEfigure}, \email, \intro, \IWCEkeywords, {multicols}]; 1 missing file[iwce.sty].
132005 2013-03-05 23:42:35 /0411/cond-mat.0411538 070000[\gram, \pascal, \meter, \micro, \centi, \giga]; 1 missing file[mySIunits.sty].
132006 2013-03-05 23:42:33 /0411/cond-mat.0411472 2010000[\mathinner].
132007 2013-03-05 23:42:24 /0411/cond-mat.0411462 1830000[\kword, \abst, \inst].
132008 2013-03-05 23:42:17 /0411/cond-mat.0411510 510000[\Bbb].
132009 2013-03-05 23:42:16 /0411/cond-mat.0411425 610000[\psfrag].
132010 2013-03-05 23:42:16 /0411/cond-mat.0411560 010000[\psfrag].
132011 2013-03-05 23:42:11 /0411/cond-mat.0411465 430000[\kword, \abst, \inst].
132012 2013-03-05 23:42:06 /0411/cond-mat.0411473 640000[\kword, \abst, \inst, \citen].
132013 2013-03-05 23:41:55 /0411/cond-mat.0411386 8330000[\nouppercase]; 1 missing file[oldgerm.sty].
132014 2013-03-05 23:41:54 /0411/cond-mat.0411552 410000[\meter].
132015 2013-03-05 23:41:50 /0411/cond-mat.0411505 010000[\ad].
132016 2013-03-05 23:41:49 /0411/cond-mat.0411477 050000[\@affiliation].
132017 2013-03-05 23:41:34 /0411/cond-mat.0411458 310000[\address].
132018 2013-03-05 23:41:29 /0411/cond-mat.0411490 020000[\affiliation, {acknowledgements}].
132019 2013-03-05 23:41:28 /0411/cond-mat.0411582 310000[\psfrag].
132020 2013-03-05 23:41:27 /0411/cond-mat.0411423 410000[\layoutstyle].
132021 2013-03-05 23:41:25 /0411/cond-mat.0411413 14010000[\theappendix].
132022 2013-03-05 23:35:39 /0411/cond-mat.0411296 2360000[\kword, \abst, \inst, \recdate, \mib, \citen].
132023 2013-03-05 23:35:23 /0411/cond-mat.0411307 8210000[\psfrag].
132024 2013-03-05 23:35:19 /0411/cond-mat.0411367 370000[\sodauthor, \rauthor, \address, \dates, \lat, \PACS, \rtitle].
132025 2013-03-05 23:35:15 /0411/cond-mat.0411390 810000[\theappendix].
132026 2013-03-05 23:34:54 /0411/cond-mat.0411304 810000[\listfiles].
132027 2013-03-05 23:34:44 /0411/cond-mat.0411315 16130000[\Issue, {vchtable}, \Month, \DOIsuffix, \Volume, \pagespan, \Copyrightissue, \subjclass, {vchfigure}, \Year, {acknowledgement}].
132028 2013-03-05 23:34:42 /0411/cond-mat.0411388 410000[\psfrag].
132029 2013-03-05 23:34:40 /0411/cond-mat.0411326 810000[\psfrag].
132030 2013-03-05 23:34:39 /0411/cond-mat.0411374 010000[\mathinner].
132031 2013-03-05 23:34:36 /0411/cond-mat.0411339 030000[\extrasenglish, \dateenglish, \captionsenglish].
132032 2013-03-05 23:34:32 /0411/cond-mat.0411275 040000[\catchline, \refcite, \keywords]; 1 missing file[ws.sty].
132033 2013-03-05 23:34:30 /0411/cond-mat.0411297 030000[\extrasenglish, \dateenglish, \captionsenglish].
132034 2013-03-05 23:34:23 /0411/cond-mat.0411347 210000[\psfrag].
132035 2013-03-05 23:34:16 /0411/cond-mat.0411279 210000[\FloatBarrier].
132036 2013-03-05 23:34:14 /0411/cond-mat.0411393 110000[\theappendix].
132037 2013-03-05 23:34:11 /0411/cond-mat.0411300 210000[\sep].
132038 2013-03-05 23:28:46 /0411/cond-mat.0411227 6210000[\theappendix].
132039 2013-03-05 23:28:30 /0411/cond-mat.0411099 920000[\boxempty, \psfrag].
132040 2013-03-05 23:28:23 /0411/cond-mat.0411251 39320000[\mns, \eq, \mbf, \n, \pls, \be, \sumk, \ee, \k, \uu]; 1 missing file[{macros.tex}].
132041 2013-03-05 23:28:00 /0411/cond-mat.0411225 470000[\catchline, {history}, \revised, \refcite, \keywords, \received]; 1 missing file[ws.sty].
132042 2013-03-05 23:27:51 /0411/cond-mat.0411240 030000[\extrasenglish, \dateenglish, \captionsenglish].
132043 2013-03-05 23:27:51 /0411/cond-mat.0411255 560000[\refaddr, \pacs, \addresses, \addr, \keywords]; 1 missing file[cmp209.sty].
132044 2013-03-05 23:27:47 /0411/cond-mat.0411096 810000[\theappendix].
132045 2013-03-05 23:27:44 /0411/cond-mat.0411197 030000[\extrasenglish, \dateenglish, \captionsenglish].
132046 2013-03-05 23:27:32 /0411/cond-mat.0411215 030000[\extrasenglish, \dateenglish, \captionsenglish].
132047 2013-03-05 23:27:28 /0411/cond-mat.0411094 2820000[\@affiliation].
132048 2013-03-05 23:27:28 /0411/cond-mat.0411107 8150000[\IWCEaddressFirst, \setHeadings, \IWCEauthorsFirst, {IWCEabstract}, \preparetitle, {IWCEfigure}, \email, \intro, \IWCEkeywords, {multicols}]; 1 missing file[iwce.sty].
132049 2013-03-05 23:27:24 /0411/cond-mat.0411110 2510000[\address].
132050 2013-03-05 23:27:22 /0411/cond-mat.0411244 410000[\meter].
132051 2013-03-05 23:27:19 /0411/cond-mat.0411108 4190000[\IWCEaddressFirst, \setHeadings, \IWCEauthorsFirst, {IWCEabstract}, \IWCEaddressSecond, {IWCEtable}, \preparetitle, {IWCEfigure}, \email, \intro, \IWCEkeywords, {multicols}, \IWCEauthorsSecond]; 1 missing file[iwce.sty].
132052 2013-03-05 23:27:18 /0411/cond-mat.0411103 060000[\twoimages, \@affiliation, \onefigure].
132053 2013-03-05 23:27:04 /0411/cond-mat.0411219 020000[{theacknowledgments}, \layoutstyle].
132054 2013-03-05 23:26:54 /0411/cond-mat.0411192 140000[\@affiliation].
132055 2013-03-05 23:24:52 /0411/cond-mat.0411064 3200000[\issuenumber, \pacs, \addressiv, \authori, \addressvi, \authoriii, \addressi, \headtitle, \refnum, \addressv, \lastevenhead, \authorvi, \addressiii, \headauthor, \authorii, \keywords, \authoriv, \daterec, \authorv, \addressii].
132056 2013-03-05 23:24:27 /0411/cond-mat.0411019 1810000[\psfrag].
132057 2013-03-05 23:24:14 /0411/cond-mat.0411016 710000[\TCItag].
132058 2013-03-05 23:24:13 /0411/cond-mat.0411056 280000[\email, \psfrag, \@affiliation, \etal].
132059 2013-03-05 23:24:01 /0411/cond-mat.0411061 0110000[\Issue, \inst, \Month, \Receiveddate, \DOIsuffix, \Volume, \keywords, \pagespan, \subjclass, \Year, {acknowledgement}].
132060 2013-03-05 23:23:34 /0411/astro-ph.0411802 510000[\theappendix].
132061 2013-03-05 23:23:16 /0411/astro-ph.0411794 3510000[\theappendix].
132062 2013-03-05 23:22:47 /0411/astro-ph.0411797 010000[\toctitle].
132063 2013-03-05 23:22:42 /0411/astro-ph.0411798 3100000[\endfoot, Align, \endhead, \endfirsthead, {longtable}]; 1 missing file[mytable.sty].
132064 2013-03-05 23:22:38 /0411/astro-ph.0411804 320000[\address, \email].
132065 2013-03-05 23:22:29 /0411/cond-mat.0411013 1640000[\kword, \abst, \inst, \recdate].
132066 2013-03-05 23:21:49 /0411/astro-ph.0411781 110000[\institute]; 1 missing file[krakproc.cls].
132067 2013-03-05 23:21:16 /0411/astro-ph.0411763 1190000[\catchline, \epsfig, {itemlist}, \keywords]; 1 missing file[ws.sty].
132068 2013-03-05 23:21:05 /0411/astro-ph.0411765 150000[\ShortTitle, \email, \FullConference, \PoS, \speaker]; 1 missing file[PoS.cls].
132069 2013-03-05 23:20:43 /0411/astro-ph.0411745 2160000[\affil, \endfirsthead, {longtable}, \endfoot, \Received, \includegraphics, Align, \Accepted, \email, \endlastfoot, \SetRunningHead, \KeyWords]; 1 missing file[pasj00.cls].
132070 2013-03-05 23:18:55 /0411/astro-ph.0411740 720000[\affil, \keywords]; 1 missing file[esapub.cls].
132071 2013-03-05 23:18:52 /0411/astro-ph.0411741 240000[\affil, \plotone]; 1 missing file[asp2004.sty].
132072 2013-03-05 23:18:50 /0411/astro-ph.0411751 060000[\affil, \apj, \aj, \acknowledgements, \aap]; 1 missing file[asp2004.sty].
132073 2013-03-05 23:18:49 /0411/astro-ph.0411760 650000[\includegraphics, \catchline, \pub, \keywords]; 1 missing file[ws.sty].
132074 2013-03-05 23:18:48 /0411/astro-ph.0411705 30210000[\affil, \citep, \accepted, \slugcomment, \ga, \theappendix, \sun, \shortauthors, \ccc, \email, \shorttitle, \cpright, \received, \citeauthoryear, \citealp, \resizebox, \keywords, \includegraphics, Align, \revised, \citet]; 1 missing file[myaastex.cls].
132075 2013-03-05 23:18:48 /0411/astro-ph.0411757 250000[\inst, \fnmsep, \institute, \acknowledgements, \keywords]; 1 missing file[an-think.cls].
132076 2013-03-05 23:18:43 /0411/astro-ph.0411759 0120000[{acknowledgments}, \affil, {keywords}, \articletitle, \upperandlowercase, \chaptitlerunninghead, \articlesubtitle, \kluwerbib, \email, \sphline].
132077 2013-03-05 23:18:40 /0411/astro-ph.0411755 060000[\affil, \citep, \arcsec, \citet, \ga]; 1 missing file[asp2004.sty].
132078 2013-03-05 23:18:18 /0411/astro-ph.0411698 1150000[{sidewaystable*}]; 1 missing file[u.fontmap].
132079 2013-03-05 23:17:38 /0411/astro-ph.0411691 14740000[\thesaurus, \institute, \keywords]; 1 missing file[laa.sty].
132080 2013-03-05 23:17:30 /0411/astro-ph.0411711 010000[\cjaa].
132081 2013-03-05 23:17:27 /0411/astro-ph.0411714 010000[\toctitle].
132082 2013-03-05 23:17:24 /0411/astro-ph.0411709 10140000[\citeauthoryear, \opencite, \surname, \institute, {subequation}, {opening}, {article}, \keywords, \newdisplay, \shortcite, \runningauthor, \citeauthor, \inlinecite, {acknowledgements}].
132083 2013-03-05 23:17:22 /0411/astro-ph.0411722 110000[\affil]; 1 missing file[esapub.cls].
132084 2013-03-05 23:17:13 /0411/astro-ph.0411692 010000[\toctitle].
132085 2013-03-05 23:17:06 /0411/astro-ph.0411717 120000[\layoutstyle, \classification].
132086 2013-03-05 23:16:59 /0411/astro-ph.0411708 6210000[\apj, \endpage, \aaps, \apjl, \runningtitle, \aap, \address, \epsfbox, \reference, {references}, \araa, \epsfxsize, \epsfysize, \epsffile, \altaffilmark, \keywords, \mnras, \beginpage, \runningauthor, \acknowledgements]; 1 missing file[jkas2.sty].
132087 2013-03-05 23:16:54 /0411/astro-ph.0411700 0290000[\articletitle, \kluwerbib, \upperandlowercase, {chapthebibliography}, \altaffiltext, \altaffilmark].
132088 2013-03-05 23:16:31 /0411/astro-ph.0411675 420000[\psboxto]; 1 missing file[psbox.tex].
132089 2013-03-05 23:16:25 /0411/astro-ph.0411665 5410000[\includegraphics, {keywords}, \lesssim]; 1 missing file[basi.sty].
132090 2013-03-05 23:16:25 /0411/astro-ph.0411687 810000[{keywords}]; 1 missing file[basi.cls].
132091 2013-03-05 23:16:17 /0411/astro-ph.0411668 070000[\chapbibliography, \affil, \articletitle, \kluwerbib, \upperandlowercase, \email, \chapbblname].
132092 2013-03-05 23:16:17 /0411/astro-ph.0411685 030000[\catchline, \psfig]; 1 missing file[ws.sty].
132093 2013-03-05 23:16:14 /0411/astro-ph.0411686 180000[\address, \endpage, \beginpage, \runningauthor, \acknowledgements, \runningtitle, \keywords]; 1 missing file[jkas35.sty].
132094 2013-03-05 23:16:10 /0411/astro-ph.0411683 280000[\includegraphics, \catchline, \refcite, \pub, \keywords]; 1 missing file[ws.sty].
132095 2013-03-05 23:16:10 /0411/astro-ph.0411684 290000[\includegraphics, \colrule, \catchline, \botrule, \toprule, \tbl, \pub, \keywords]; 1 missing file[ws.sty].
132096 2013-03-05 23:16:10 /0411/astro-ph.0411690 0140000[\resumen, \indexauthor, \shortauthor, \suppressfulladdresses, \dateenglish, \altaffilmark, \extrasenglish, \SetYear, \listofauthors, \shorttitle, \SetConfTitle, \addkeyword, \altaffiltext, \captionsenglish].
132097 2013-03-05 23:16:08 /0411/astro-ph.0411682 1110000[\catchline, \tbl, \refcite, \pub, \keywords, \includegraphics, \colrule, \botrule, \toprule]; 1 missing file[ws.sty].
132098 2013-03-05 23:15:58 /0411/astro-ph.0411671 040000[\epsfbox, \abstracts, \epsfxsize]; 1 missing file[ws.sty].
132099 2013-03-05 23:15:53 /0411/astro-ph.0411674 220000[\affil, \keywords]; 1 missing file[Gaia2004.cls].
132100 2013-03-05 23:15:52 /0411/astro-ph.0411688 150000[\affil, \reference, {references}, \acknowledgements]; 1 missing file[asp2004.sty].
132101 2013-03-05 23:11:34 /0411/astro-ph.0411613 0130000[\al@[, \pra, \apj, \jqsrt, \aaps, \apjl, \planss, \aap, \theappendix, \mnras, \apjs, \jcp]; 1 missing file[aas_macros.sty].
132102 2013-03-05 23:11:32 /0411/astro-ph.0411597 1220000[\affil, {keywords}, \articletitle, \kluwerbib, \upperandlowercase, {chapthebibliography}, \altaffilmark].
132103 2013-03-05 23:11:29 /0411/astro-ph.0411623 0240000[\affil, \a, {keywords}, \articletitle, \kluwerbib, \upperandlowercase, \email, {chapthebibliography}].
132104 2013-03-05 23:11:26 /0411/astro-ph.0411542 0390000[\affil, {keywords}, \articletitle, \email, \citename, {chapthebibliography}].
132105 2013-03-05 23:11:25 /0411/astro-ph.0411581 0230000[\affil, \authormark, \aindex, \paperID, \acknowledgments, {deluxetable}, \paindex, \startdata, \email, \reference, {references}, \enddata, \colhead, \tablehead, \epsscale, \keywords, Align, \adassxiii, \plotone, \tablecaption, \adassix, \contact]; 1 miss
132106 2013-03-05 23:11:25 /0411/astro-ph.0411635 0470000[{acknowledgments}, \sidebyside, {tablenotes}, {keywords}, \articletitle, \upperandlowercase, \notes, {chapthebibliography}, \letteredcaption, \altaffilmark, \articlesubtitle, \kluwerbib, \email, \altaffiltext, \sphline].
132107 2013-03-05 23:11:19 /0411/astro-ph.0411642 360000[\citenum, \authorinfo, \skiplinehalf, \acknowledgments, \keywords, \supit]; 1 missing file[spie.cls].
132108 2013-03-05 23:11:04 /0411/astro-ph.0411588 1100000[{acknowledgments}, \affil, \citep, {article}, \authoraddr, \authorrunninghead, \citealt, \tablecomments, \citet, \titlerunninghead]; 1 missing file[agu2001.cls].
132109 2013-03-05 23:11:00 /0411/astro-ph.0411563 070000[\citealt, \affil, \mnras, \citep, \citet, \plotfiddle]; 1 missing file[asp2004.sty].
132110 2013-03-05 23:10:50 /0411/astro-ph.0411584 1110000[\inst, \mailto, \institute, \offprints, \keywords, \email, \arcsec, \volnopage, \titlerunning, \authorrunning, {acknowledgements}]; 1 missing file[cjaa.cls].
132111 2013-03-05 23:10:43 /0411/astro-ph.0411609 060000[\affil, \articletitle, \kluwerbib, \upperandlowercase, {chapthebibliography}, \sphline].
132112 2013-03-05 23:10:37 /0411/astro-ph.0411640 3120000[\affil, \mnras, \apj, \plotone, \tableline, \apjl, \acknowledgements, \plottwo]; 1 missing file[asp2004.sty].
132113 2013-03-05 23:10:36 /0411/astro-ph.0411555 030000[\pcite, \scite]; 1 missing file[mncite.sty].
132114 2013-03-05 23:10:31 /0411/astro-ph.0411579 410000[\psfrag].
132115 2013-03-05 23:10:26 /0411/astro-ph.0411637 0200000[{acknowledgments}, \affil, \articletitle, \kluwerbib, \upperandlowercase, \email, {chapthebibliography}].
132116 2013-03-05 23:10:21 /0411/astro-ph.0411575 0210000[\affil, \articletitle, \kluwerbib, \upperandlowercase, \email, {chapthebibliography}, \chaptitlerunninghead].
132117 2013-03-05 23:10:12 /0411/astro-ph.0411589 0210000[\affil, \authormark, \htmladdnormallinkfoot, \aindex, \paperID, \paindex, \adassxiv, \htmladdURL, \email, \paperref, \reference, {references}, \adassxii, \keywords, \baas, \plotone, \contact]; 1 missing file[adassconf.sty].
132118 2013-03-05 23:10:07 /0411/astro-ph.0411649 130000[\address, \TitreGlobal, \runningtitle]; 1 missing file[edp-conf.cls].
132119 2013-03-05 23:10:02 /0411/astro-ph.0411638 340000[{theacknowledgments}, \layoutstyle, \tablehead]; 1 missing file[{aipcheck}].
132120 2013-03-05 23:10:01 /0411/astro-ph.0411659 220000[\affil, \keywords]; 1 missing file[esapub.cls].
132121 2013-03-05 23:09:59 /0411/astro-ph.0411641 120000[\affil, \keywords]; 1 missing file[esapub.cls].
132122 2013-03-05 23:09:52 /0411/astro-ph.0411549 120000[\affil, \keywords]; 1 missing file[Gaia2004.cls].
132123 2013-03-05 23:09:50 /0411/astro-ph.0411629 030000[\includegraphics, \abstracts]; 1 missing file[ws.sty].
132124 2013-03-05 23:09:46 /0411/astro-ph.0411643 050000[\affil, \ion, \plotone, \acknowledgements]; 1 missing file[asp2004.sty].
132125 2013-03-05 23:09:44 /0411/astro-ph.0411574 150000[\authorinfo, \skiplinehalf, \acknowledgments, \keywords, \supit]; 1 missing file[spie.cls].
132126 2013-03-05 23:09:35 /0411/astro-ph.0411634 010000[\normal@char~].
132127 2013-03-05 23:09:27 /0411/astro-ph.0411567 1510000[\theappendix].
132128 2013-03-05 23:09:16 /0411/astro-ph.0411611 010000[\layoutstyle].
132129 2013-03-05 23:09:09 /0411/astro-ph.0411622 1610000[\actaa].
132130 2013-03-05 23:08:59 /0411/astro-ph.0411569 210000[\toctitle].
132131 2013-03-05 23:08:53 /0411/astro-ph.0411543 4910000[\nofiles].
132132 2013-03-05 23:08:43 /0411/astro-ph.0411664 2710000[{keywords}]; 1 missing file[basi.cls].
132133 2013-03-05 23:02:45 /0411/astro-ph.0411455 143570000[\theappendix, \slabel, Align, {subeqnarray}].
132134 2013-03-05 23:02:31 /0411/astro-ph.0411438 4600000[\affil, \articlesubtitle, {keywords}, \articletitle, \email, {chapthebibliography}].
132135 2013-03-05 23:02:02 /0411/astro-ph.0411509 1160000[\apj, \mailto, \institute, \offprints, \apjl, \nat, \aap, \keywords, \subtitle, \mnras, \email, \pasp, \volnopage, \titlerunning, \authorrunning, {acknowledgements}]; 1 missing file[cjaa.cls].
132136 2013-03-05 23:02:00 /0411/astro-ph.0411440 0100000[\affil, \apj, \tableline, \acknowledgments, \mnras, \reference, \pasp, {references}, \plottwo]; 1 missing file[asp2004.sty].
132137 2013-03-05 23:01:59 /0411/astro-ph.0411465 0190000[\affil, \articletitle, \kluwerbib, \upperandlowercase, {chapthebibliography}, \sphline, \altaffilmark].
132138 2013-03-05 23:01:57 /0411/astro-ph.0411493 310000[\nicefrac].
132139 2013-03-05 23:01:57 /0411/astro-ph.0411497 6180000[\articletitle, \kluwerbib, \upperandlowercase, \email, {chapthebibliography}, \altaffiltext, \altaffilmark].
132140 2013-03-05 23:01:57 /0411/astro-ph.0411520 1220000[\affil, \articletitle, \kluwerbib, \upperandlowercase, \email, {chapthebibliography}, \chaptitlerunninghead].
132141 2013-03-05 23:01:52 /0411/astro-ph.0411531 020000[\actaa, \na].
132142 2013-03-05 23:01:50 /0411/astro-ph.0411472 0260000[\citeauthoryear, \sidebyside, \affil, {keywords}, \articletitle, \upperandlowercase, {chapthebibliography}, \altaffilmark, \kluwerbib].
132143 2013-03-05 23:01:49 /0411/astro-ph.0411479 0470000[{acknowledgments}, \affil, \articletitle, \upperandlowercase, {chapthebibliography}, \chaptitlerunninghead, \kluwerbib, \email].
132144 2013-03-05 23:01:48 /0411/astro-ph.0411503 050000[\toctitle, {sidewaystable}]; 2 missing files[taphys.sty, u.fontmap].
132145 2013-03-05 23:01:47 /0411/astro-ph.0411420 0380000[{acknowledgments}, \affil, \articletitle, \upperandlowercase, {chapthebibliography}, \chaptitlerunninghead, \articlesubtitle, \kluwerbib, \email].
132146 2013-03-05 23:01:44 /0411/astro-ph.0411466 170000[\surname, \runningauthor, \institute, \acknowledgements, {opening}, {article}, \keywords].
132147 2013-03-05 23:01:43 /0411/astro-ph.0411467 060000[\surname, \runningauthor, \institute, {opening}, {article}, \keywords].
132148 2013-03-05 23:01:37 /0411/astro-ph.0411536 220000[\theappendix, {sideways}].
132149 2013-03-05 23:01:35 /0411/astro-ph.0411498 270000[\affil, \mnras, \apj, \aj, \tableline, \plotfiddle]; 1 missing file[asp2004.sty].
132150 2013-03-05 23:01:33 /0411/astro-ph.0411461 0110000[\affil, \mnras, \aj, \aaps, \plotfiddle, \aap, \acknowledgments, \plottwo]; 1 missing file[asp2004.sty].
132151 2013-03-05 23:01:33 /0411/astro-ph.0411506 9110000[\affil, \citep, \plotfiddle]; 1 missing file[asp2004.sty].
132152 2013-03-05 23:01:33 /0411/astro-ph.0411526 030000[\ltsim, \gtsim]; 1 missing file[ltgtsim.sty].
132153 2013-03-05 23:01:26 /0411/astro-ph.0411419 0110000[\affil, \articletitle, \kluwerbib, \upperandlowercase, \email, {chapthebibliography}, \chaptitlerunninghead].
132154 2013-03-05 23:01:26 /0411/astro-ph.0411456 0150000[\harvarditem].
132155 2013-03-05 23:01:26 /0411/astro-ph.0411537 0140000[\affil, \articlesubtitle, {keywords}, \articletitle, \kluwerbib, \upperandlowercase, {chapthebibliography}].
132156 2013-03-05 23:01:20 /0411/astro-ph.0411539 120000[\affil, \keywords]; 1 missing file[Gaia2004.cls].
132157 2013-03-05 23:01:17 /0411/astro-ph.0411540 120000[\affil, \keywords]; 1 missing file[Gaia2004.cls].
132158 2013-03-05 23:01:16 /0411/astro-ph.0411439 120000[\affil, \keywords]; 1 missing file[Gaia2004.cls].
132159 2013-03-05 23:01:16 /0411/astro-ph.0411458 040000[\affil, \plotone, \plotfiddle]; 1 missing file[asp2004.sty].
132160 2013-03-05 23:01:15 /0411/astro-ph.0411442 320000[\affil, \keywords]; 1 missing file[Gaia2004.cls].
132161 2013-03-05 23:01:10 /0411/astro-ph.0411518 010000[\citeauthoryear].
132162 2013-03-05 23:01:09 /0411/astro-ph.0411437 060000[\affil, \mnras, \apj, \reference, {references}]; 1 missing file[asp2004.sty].
132163 2013-03-05 23:01:06 /0411/astro-ph.0411473 010000[\harvarditem].
132164 2013-03-05 23:01:05 /0411/astro-ph.0411476 150000[\ShortTitle, \email, \FullConference, \PoS, \speaker]; 1 missing file[PoS.cls].
132165 2013-03-05 23:01:04 /0411/astro-ph.0411491 040000[\epsfbox, \abstracts, \epsfxsize]; 1 missing file[ws.sty].
132166 2013-03-05 23:01:04 /0411/astro-ph.0411519 260000[\AuthorIndex, \BookTitle, \makeauthorindex, \AuthorContents, \CopyRight]; 1 missing file[phisics.sty].
132167 2013-03-05 23:00:57 /0411/astro-ph.0411436 120000[\affil]; 1 missing file[asp2004.sty].
132168 2013-03-05 23:00:57 /0411/astro-ph.0411494 020000[{theacknowledgments}, \layoutstyle].
132169 2013-03-05 23:00:52 /0411/astro-ph.0411521 150000[\affil, {keywords}]; 1 missing file[pasa.cls].
132170 2013-03-05 23:00:51 /0411/astro-ph.0411414 120000[\affil, \keywords]; 1 missing file[esapub.cls].
132171 2013-03-05 23:00:49 /0411/astro-ph.0411525 120000[\affil, \keywords]; 1 missing file[esapub.cls].
132172 2013-03-05 23:00:44 /0411/astro-ph.0411443 120000[\layoutstyle]; 1 missing file[{aipcheck}].
132173 2013-03-05 23:00:33 /0411/astro-ph.0411523 0110000[\endfoot, Align, \endhead, \endfirsthead, {longtable}, \endlastfoot]; 1 missing file[aalongtable.sty].
132174 2013-03-05 22:57:12 /0411/astro-ph.0411332 1160000[\affil, \apj, \timeform, \citep, \pasj, \aaps, \aap, \Accepted, \email, \KeyWords, \aj, \Received, \apjs, \FigureFile, \citet, \SetRunningHead]; 1 missing file[pasj00.cls].
132175 2013-03-05 22:56:40 /0411/astro-ph.0411377 190000[\affil, \apj, \citep, \apjl, \aap, \mnras, \citet, \acknowledgements]; 1 missing file[asp2004.sty].
132176 2013-03-05 22:56:39 /0411/astro-ph.0411292 030000[\extrasenglish, \dateenglish, \captionsenglish].
132177 2013-03-05 22:56:36 /0411/astro-ph.0411301 0190000[\articletitle, \upperandlowercase, {chapthebibliography}, \altaffilmark, \articlesubtitle, \kluwerbib, \email, \altaffiltext].
132178 2013-03-05 22:56:35 /0411/astro-ph.0411333 0260000[\affil, \authormark, \apj, \htmladdnormallinkfoot, \paperID, \aap, \acknowledgments, \paindex, \adassxiv, \email, \pasp, \reference, \paperref, \arcsec, {references}, \aj, \epsscale, \altaffilmark, \keywords, \apjs, \plotone, \altaffiltext, \contact]; 1
132179 2013-03-05 22:56:35 /0411/astro-ph.0411382 0220000[\affil, \articletitle, \upperandlowercase, \anxx, {chapthebibliography}, \chaptitlerunninghead, \kluwerbib, \email].
132180 2013-03-05 22:56:33 /0411/astro-ph.0411405 0240000[{acknowledgments}, \sidebyside, \affil, {keywords}, \articletitle, \upperandlowercase, {chapthebibliography}, \altaffilmark, \kluwerbib].
132181 2013-03-05 22:56:30 /0411/astro-ph.0411344 0220000[{acknowledgments}, \affil, \articletitle, \kluwerbib, \upperandlowercase, {chapthebibliography}, \altaffilmark].
132182 2013-03-05 22:56:26 /0411/astro-ph.0411388 0360000[\affil, \articlesubtitle, {keywords}, \articletitle, \upperandlowercase, \email, {chapthebibliography}].
132183 2013-03-05 22:56:24 /0411/astro-ph.0411316 0240000[\arcmin, \affil, \authormark, \aindex, \paperID, \acknowledgments, \micron, \paindex, \adassxiv, \email, \paperref, \pasp, \reference, \arcsec, {references}, \adassxii, \adassxi, \epsscale, \keywords, \apjs, \plotone, \contact]; 1 missing file[adassconf.
132184 2013-03-05 22:56:24 /0411/astro-ph.0411385 0100000[\citeauthoryear, \surname, {ao}, \institute, {opening}, {article}, \keywords, \email, \runningauthor, \citeauthor].
132185 2013-03-05 22:56:23 /0411/astro-ph.0411398 2110000[\psfrag].
132186 2013-03-05 22:56:20 /0411/astro-ph.0411342 140000[\theappendix]; 1 missing file[natbib_mod.sty].
132187 2013-03-05 22:56:19 /0411/astro-ph.0411404 060000[\affil, \reference, {references}, \acknowledgements, \plotfiddle]; 1 missing file[asp2004.sty].
132188 2013-03-05 22:56:18 /0411/astro-ph.0411371 070000[\affil, \mnras, \apj, \plotone, \acknowledgements]; 1 missing file[FUSE2004.sty].
132189 2013-03-05 22:56:16 /0411/astro-ph.0411335 080000[\citealt, \affil, \citep, \citet, \ga, \plotfiddle, \acknowledgments]; 1 missing file[asp2004.sty].
132190 2013-03-05 22:56:13 /0411/astro-ph.0411380 190000[\affil, \apjs, \mnras, \apj, \aj, \acknowledgements, \plotfiddle, \plottwo]; 1 missing file[FUSE2004.sty].
132191 2013-03-05 22:56:12 /0411/astro-ph.0411337 0100000[\affil, \apj, \reference, \plotone, {references}, \tableline, \acknowledgements, \aap]; 1 missing file[asp2004.sty].
132192 2013-03-05 22:56:11 /0411/astro-ph.0411396 080000[\epsfbox, \abstracts, \epsfysize]; 1 missing file[ws.sty].
132193 2013-03-05 22:56:10 /0411/astro-ph.0411362 1210000[\affil, \keywords]; 1 missing file[Gaia2004.cls].
132194 2013-03-05 22:56:05 /0411/astro-ph.0411296 010000[\a].
132195 2013-03-05 22:56:05 /0411/astro-ph.0411350 120000[\affil, \keywords]; 1 missing file[esapub.cls].
132196 2013-03-05 22:56:05 /0411/astro-ph.0411363 420000[\affil, \keywords]; 1 missing file[Gaia2004.cls].
132197 2013-03-05 22:56:02 /0411/astro-ph.0411403 0120000[\affil, \apj, \reference, \plotone, {references}, \tableline, \acknowledgements, \plotfiddle, \aap]; 1 missing file[asp2004.sty].
132198 2013-03-05 22:55:58 /0411/astro-ph.0411334 120000[\affil, \keywords]; 1 missing file[Gaia2004.cls].
132199 2013-03-05 22:55:51 /0411/astro-ph.0411361 040000[{theacknowledgments}, \layoutstyle, \classification]; 1 missing file[{aipcheck}].
132200 2013-03-05 22:55:51 /0411/astro-ph.0411400 2040000[\copyrightyear, \layoutstyle, \classification]; 1 missing file[{aipcheck.tex}].
<<< >>>

[0] [200] [400] [600] [800] [1000] [1200] [1400] [1600] [1800] [2000] [2200] [2400] [2600] [2800] [3000] [3200] [3400] [3600] [3800] [4000] [4200] [4400] [4600] [4800] [5000] [5200] [5400] [5600] [5800] [6000] [6200] [6400] [6600] [6800] [7000] [7200] [7400] [7600] [7800] [8000] [8200] [8400] [8600] [8800] [9000] [9200] [9400] [9600] [9800] [10000] [10200] [10400] [10600] [10800] [11000] [11200] [11400] [11600] [11800] [12000] [12200] [12400] [12600] [12800] [13000] [13200] [13400] [13600] [13800] [14000] [14200] [14400] [14600] [14800] [15000] [15200] [15400] [15600] [15800] [16000] [16200] [16400] [16600] [16800] [17000] [17200] [17400] [17600] [17800] [18000] [18200] [18400] [18600] [18800] [19000] [19200] [19400] [19600] [19800] [20000] [20200] [20400] [20600] [20800] [21000] [21200] [21400] [21600] [21800] [22000] [22200] [22400] [22600] [22800] [23000] [23200] [23400] [23600] [23800] [24000] [24200] [24400] [24600] [24800] [25000] [25200] [25400] [25600] [25800] [26000] [26200] [26400] [26600] [26800] [27000] [27200] [27400] [27600] [27800] [28000] [28200] [28400] [28600] [28800] [29000] [29200] [29400] [29600] [29800] [30000] [30200] [30400] [30600] [30800] [31000] [31200] [31400] [31600] [31800] [32000] [32200] [32400] [32600] [32800] [33000] [33200] [33400] [33600] [33800] [34000] [34200] [34400] [34600] [34800] [35000] [35200] [35400] [35600] [35800] [36000] [36200] [36400] [36600] [36800] [37000] [37200] [37400] [37600] [37800] [38000] [38200] [38400] [38600] [38800] [39000] [39200] [39400] [39600] [39800] [40000] [40200] [40400] [40600] [40800] [41000] [41200] [41400] [41600] [41800] [42000] [42200] [42400] [42600] [42800] [43000] [43200] [43400] [43600] [43800] [44000] [44200] [44400] [44600] [44800] [45000] [45200] [45400] [45600] [45800] [46000] [46200] [46400] [46600] [46800] [47000] [47200] [47400] [47600] [47800] [48000] [48200] [48400] [48600] [48800] [49000] [49200] [49400] [49600] [49800] [50000] [50200] [50400] [50600] [50800] [51000] [51200] [51400] [51600] [51800] [52000] [52200] [52400] [52600] [52800] [53000] [53200] [53400] [53600] [53800] [54000] [54200] [54400] [54600] [54800] [55000] [55200] [55400] [55600] [55800] [56000] [56200] [56400] [56600] [56800] [57000] [57200] [57400] [57600] [57800] [58000] [58200] [58400] [58600] [58800] [59000] [59200] [59400] [59600] [59800] [60000] [60200] [60400] [60600] [60800] [61000] [61200] [61400] [61600] [61800] [62000] [62200] [62400] [62600] [62800] [63000] [63200] [63400] [63600] [63800] [64000] [64200] [64400] [64600] [64800] [65000] [65200] [65400] [65600] [65800] [66000] [66200] [66400] [66600] [66800] [67000] [67200] [67400] [67600] [67800] [68000] [68200] [68400] [68600] [68800] [69000] [69200] [69400] [69600] [69800] [70000] [70200] [70400] [70600] [70800] [71000] [71200] [71400] [71600] [71800] [72000] [72200] [72400] [72600] [72800] [73000] [73200] [73400] [73600] [73800] [74000] [74200] [74400] [74600] [74800] [75000] [75200] [75400] [75600] [75800] [76000] [76200] [76400] [76600] [76800] [77000] [77200] [77400] [77600] [77800] [78000] [78200] [78400] [78600] [78800] [79000] [79200] [79400] [79600] [79800] [80000] [80200] [80400] [80600] [80800] [81000] [81200] [81400] [81600] [81800] [82000] [82200] [82400] [82600] [82800] [83000] [83200] [83400] [83600] [83800] [84000] [84200] [84400] [84600] [84800] [85000] [85200] [85400] [85600] [85800] [86000] [86200] [86400] [86600] [86800] [87000] [87200] [87400] [87600] [87800] [88000] [88200] [88400] [88600] [88800] [89000] [89200] [89400] [89600] [89800] [90000] [90200] [90400] [90600] [90800] [91000] [91200] [91400] [91600] [91800] [92000] [92200] [92400] [92600] [92800] [93000] [93200] [93400] [93600] [93800] [94000] [94200] [94400] [94600] [94800] [95000] [95200] [95400] [95600] [95800] [96000] [96200] [96400] [96600] [96800] [97000] [97200] [97400] [97600] [97800] [98000] [98200] [98400] [98600] [98800] [99000] [99200] [99400] [99600] [99800] [100000] [100200] [100400] [100600] [100800] [101000] [101200] [101400] [101600] [101800] [102000] [102200] [102400] [102600] [102800] [103000] [103200] [103400] [103600] [103800] [104000] [104200] [104400] [104600] [104800] [105000] [105200] [105400] [105600] [105800] [106000] [106200] [106400] [106600] [106800] [107000] [107200] [107400] [107600] [107800] [108000] [108200] [108400] [108600] [108800] [109000] [109200] [109400] [109600] [109800] [110000] [110200] [110400] [110600] [110800] [111000] [111200] [111400] [111600] [111800] [112000] [112200] [112400] [112600] [112800] [113000] [113200] [113400] [113600] [113800] [114000] [114200] [114400] [114600] [114800] [115000] [115200] [115400] [115600] [115800] [116000] [116200] [116400] [116600] [116800] [117000] [117200] [117400] [117600] [117800] [118000] [118200] [118400] [118600] [118800] [119000] [119200] [119400] [119600] [119800] [120000] [120200] [120400] [120600] [120800] [121000] [121200] [121400] [121600] [121800] [122000] [122200] [122400] [122600] [122800] [123000] [123200] [123400] [123600] [123800] [124000] [124200] [124400] [124600] [124800] [125000] [125200] [125400] [125600] [125800] [126000] [126200] [126400] [126600] [126800] [127000] [127200] [127400] [127600] [127800] [128000] [128200] [128400] [128600] [128800] [129000] [129200] [129400] [129600] [129800] [130000] [130200] [130400] [130600] [130800] [131000] [131200] [131400] [131600] [131800] [132000] [132200] [132400] [132600] [132800] [133000] [133200] [133400] [133600] [133800] [134000] [134200] [134400] [134600] [134800] [135000] [135200] [135400] [135600] [135800] [136000] [136200] [136400] [136600] [136800] [137000] [137200] [137400] [137600] [137800] [138000] [138200] [138400] [138600] [138800] [139000] [139200] [139400] [139600] [139800] [140000] [140200] [140400] [140600] [140800] [141000] [141200] [141400] [141600] [141800] [142000] [142200] [142400] [142600] [142800] [143000] [143200] [143400] [143600] [143800] [144000] [144200] [144400] [144600] [144800] [145000] [145200] [145400] [145600] [145800] [146000] [146200] [146400] [146600] [146800] [147000] [147200] [147400] [147600] [147800] [148000] [148200] [148400] [148600] [148800] [149000] [149200] [149400] [149600] [149800] [150000] [150200] [150400] [150600] [150800] [151000] [151200] [151400] [151600] [151800] [152000] [152200] [152400] [152600] [152800] [153000] [153200] [153400] [153600] [153800] [154000] [154200] [154400] [154600] [154800] [155000] [155200] [155400] [155600] [155800] [156000] [156200] [156400] [156600] [156800] [157000] [157200] [157400] [157600] [157800] [158000] [158200] [158400] [158600] [158800] [159000] [159200] [159400] [159600] [159800] [160000] [160200] [160400] [160600] [160800] [161000] [161200] [161400] [161600] [161800] [162000] [162200] [162400] [162600] [162800] [163000] [163200] [163400] [163600] [163800] [164000] [164200] [164400] [164600]
 
  The service has been written by
Heinrich Stamerjohanns